Time;durP1;ratioP1;P1;durP2;ratioP2;P2;SDS_P1;SDS_P2;PMS_P1;PMS_P2;Temp;Humidity;BMP_temperature;BMP_pressure;BME280_temperature;BME280_humidity;BME280_pressure;Samples;Min_cycle;Max_cycle;Signal;HPM_P1;HPM_P2
2021/05/13 00:00:56;;;;;;;1.33;0.40;;;23.50;99.90;;;;;;5056737;28;20319;-89
2021/05/13 00:03:27;;;;;;;1.57;0.40;;;23.40;99.90;;;;;;5056256;28;20235;-90
2021/05/13 00:05:58;;;;;;;0.37;0.37;;;23.30;99.90;;;;;;5056148;28;20240;-89
2021/05/13 00:08:30;;;;;;;1.70;0.43;;;23.20;99.90;;;;;;5056391;28;20208;-89
2021/05/13 00:11:05;;;;;;;0.83;0.33;;;23.00;99.90;;;;;;5056118;28;20204;-90
2021/05/13 00:13:38;;;;;;;0.30;0.27;;;23.20;99.90;;;;;;5055544;28;20260;-90
2021/05/13 00:16:08;;;;;;;0.90;0.30;;;23.10;99.90;;;;;;5055714;28;20204;-90
2021/05/13 00:18:39;;;;;;;0.77;0.30;;;23.10;99.90;;;;;;5056460;28;20257;-90
2021/05/13 00:21:10;;;;;;;1.07;0.40;;;22.60;99.90;;;;;;5057479;28;20230;-90
2021/05/13 00:23:42;;;;;;;1.70;0.83;;;22.10;99.90;;;;;;5033910;28;20225;-91
2021/05/13 00:26:15;;;;;;;1.60;0.30;;;21.90;99.90;;;;;;5036279;28;20646;-90
2021/05/13 00:28:46;;;;;;;2.57;0.50;;;21.70;99.90;;;;;;5036953;28;20216;-89
2021/05/13 00:31:17;;;;;;;1.10;0.50;;;21.80;99.90;;;;;;5035821;28;20308;-90
2021/05/13 00:33:47;;;;;;;2.03;0.30;;;22.00;99.90;;;;;;5035933;28;20298;-90
2021/05/13 00:36:20;;;;;;;0.77;0.30;;;22.10;99.90;;;;;;5018210;28;20228;-90
2021/05/13 00:38:51;;;;;;;1.97;0.20;;;22.20;99.90;;;;;;5037189;28;20251;-89
2021/05/13 00:41:26;;;;;;;0.80;0.50;;;22.20;99.90;;;;;;5042944;28;20263;-87
2021/05/13 00:43:58;;;;;;;0.30;0.20;;;22.40;99.90;;;;;;5053231;28;20204;-89
2021/05/13 00:46:29;;;;;;;0.33;0.33;;;22.20;99.90;;;;;;5054472;28;20213;-88
2021/05/13 00:49:05;;;;;;;2.97;0.50;;;22.00;99.90;;;;;;5046071;28;20231;-90
2021/05/13 00:51:36;;;;;;;1.17;0.30;;;22.10;99.90;;;;;;5038800;28;20218;-90
2021/05/13 00:54:07;;;;;;;0.77;0.30;;;22.00;99.90;;;;;;5036659;28;20211;-90
2021/05/13 00:56:39;;;;;;;0.27;0.23;;;22.10;99.90;;;;;;5036001;28;20603;-88
2021/05/13 00:59:11;;;;;;;1.20;0.20;;;22.30;99.90;;;;;;5035773;28;20220;-89
2021/05/13 01:01:51;;;;;;;0.90;0.30;;;22.20;99.90;;;;;;5034823;28;20236;-89
2021/05/13 01:04:23;;;;;;;0.53;0.20;;;22.40;99.90;;;;;;5035413;28;20244;-88
2021/05/13 01:06:53;;;;;;;9.20;0.70;;;23.10;99.90;;;;;;5036795;28;20213;-89
2021/05/13 01:09:26;;;;;;;0.20;0.20;;;23.30;99.90;;;;;;5035471;28;20296;-89
2021/05/13 01:12:01;;;;;;;1.07;0.30;;;23.80;99.90;;;;;;5021771;28;20251;-89
2021/05/13 01:14:40;;;;;;;1.13;0.30;;;23.70;99.90;;;;;;5017878;28;20238;-88
2021/05/13 01:17:20;;;;;;;0.90;0.30;;;24.10;99.90;;;;;;5052150;28;20238;-88
2021/05/13 01:19:55;;;;;;;0.67;0.40;;;24.40;99.90;;;;;;5041500;28;20201;-89
2021/05/13 01:22:27;;;;;;;0.70;0.37;;;24.90;99.90;;;;;;5034576;28;20310;-88
2021/05/13 01:24:58;;;;;;;0.40;0.20;;;24.70;99.90;;;;;;5035500;28;20276;-88
2021/05/13 01:27:29;;;;;;;0.80;0.40;;;24.80;99.90;;;;;;5036035;28;20786;-87
2021/05/13 01:30:00;;;;;;;1.23;0.30;;;25.00;99.90;;;;;;5035062;28;20276;-90
2021/05/13 01:32:30;;;;;;;0.47;0.30;;;25.00;99.90;;;;;;5035529;28;20279;-89
2021/05/13 01:35:01;;;;;;;1.17;0.20;;;25.10;99.90;;;;;;5034935;28;20304;-91
2021/05/13 01:37:34;;;;;;;1.13;0.40;;;25.40;99.90;;;;;;5018829;28;20217;-90
2021/05/13 01:40:06;;;;;;;1.43;0.53;;;24.80;99.90;;;;;;5035181;28;20224;-90
2021/05/13 01:42:37;;;;;;;1.23;0.50;;;24.50;99.90;;;;;;5034888;28;20240;-90
2021/05/13 01:45:09;;;;;;;0.40;0.20;;;24.70;99.90;;;;;;5035962;28;20263;-89
2021/05/13 01:47:39;;;;;;;0.73;0.33;;;25.00;99.90;;;;;;5036041;28;20209;-89
2021/05/13 01:50:11;;;;;;;0.90;0.30;;;25.00;99.90;;;;;;5040365;28;20654;-89
2021/05/13 01:52:43;;;;;;;1.40;0.50;;;25.10;99.90;;;;;;5043096;28;20267;-89
2021/05/13 01:55:14;;;;;;;0.77;0.30;;;25.20;99.90;;;;;;5059116;28;20197;-88
2021/05/13 01:57:45;;;;;;;0.30;0.30;;;25.00;99.90;;;;;;5058726;28;20205;-89
2021/05/13 02:00:16;;;;;;;0.30;0.20;;;24.90;99.90;;;;;;5058039;28;20220;-89
2021/05/13 02:02:48;;;;;;;0.50;0.30;;;24.00;99.90;;;;;;5045261;28;20197;-91
2021/05/13 02:05:20;;;;;;;0.53;0.30;;;22.90;99.90;;;;;;5048450;28;20263;-91
2021/05/13 02:07:53;;;;;;;0.57;0.30;;;22.10;99.90;;;;;;5028883;28;20296;-91
2021/05/13 02:10:24;;;;;;;1.80;0.30;;;21.50;99.90;;;;;;5042640;28;20240;-91
2021/05/13 02:12:56;;;;;;;0.33;0.20;;;21.10;99.90;;;;;;5040326;28;20232;-91
2021/05/13 02:15:27;;;;;;;1.60;0.50;;;20.60;99.90;;;;;;5039645;28;20239;-91
2021/05/13 02:17:58;;;;;;;0.20;0.20;;;20.40;99.90;;;;;;5040324;28;20208;-90
2021/05/13 02:20:29;;;;;;;0.53;0.30;;;20.20;99.90;;;;;;5024740;28;20213;-91
2021/05/13 02:23:01;;;;;;;0.43;0.40;;;19.90;99.90;;;;;;5040821;28;20295;-90
2021/05/13 02:25:33;;;;;;;1.67;0.53;;;19.80;99.90;;;;;;5039335;28;20214;-90
2021/05/13 02:28:04;;;;;;;0.43;0.40;;;19.70;99.90;;;;;;5039633;28;20277;-90
2021/05/13 02:30:35;;;;;;;0.57;0.40;;;19.50;99.90;;;;;;5039395;28;20271;-92
2021/05/13 02:33:06;;;;;;;2.93;0.70;;;19.40;99.90;;;;;;5041595;28;20767;-91
2021/05/13 02:35:37;;;;;;;2.47;0.70;;;19.30;99.90;;;;;;5039742;28;20213;-91
2021/05/13 02:38:08;;;;;;;3.00;0.53;;;19.20;99.90;;;;;;5039261;28;20255;-92
2021/05/13 02:40:39;;;;;;;1.10;0.60;;;19.10;99.90;;;;;;5021603;28;20205;-91
2021/05/13 02:43:10;;;;;;;0.70;0.50;;;19.00;99.90;;;;;;5038984;28;20213;-91
2021/05/13 02:45:41;;;;;;;1.33;0.80;;;18.80;99.90;;;;;;5039120;28;20209;-91
2021/05/13 02:48:11;;;;;;;3.30;0.87;;;18.70;99.90;;;;;;5039465;28;20219;-91
2021/05/13 02:50:42;;;;;;;1.63;0.87;;;18.50;99.90;;;;;;5038690;28;20205;-91
2021/05/13 02:53:14;;;;;;;2.60;1.10;;;18.40;99.90;;;;;;5039511;28;20316;-91
2021/05/13 02:55:45;;;;;;;1.77;0.70;;;18.20;99.90;;;;;;5039202;28;20232;-91
2021/05/13 02:58:16;;;;;;;2.30;0.70;;;18.00;99.90;;;;;;5038949;28;20233;-90
2021/05/13 03:00:54;;;;;;;1.03;0.60;;;17.90;99.90;;;;;;5043314;28;20231;-91
2021/05/13 03:03:25;;;;;;;0.83;0.57;;;17.70;99.90;;;;;;5057784;28;20185;-92
2021/05/13 03:05:56;;;;;;;1.00;0.70;;;17.60;99.90;;;;;;5040794;28;20193;-90
2021/05/13 03:08:29;;;;;;;1.47;0.93;;;17.50;99.90;;;;;;5054771;28;20727;-90
2021/05/13 03:11:00;;;;;;;1.70;0.53;;;17.40;99.90;;;;;;5048693;28;20188;-90
2021/05/13 03:13:31;;;;;;;1.53;0.70;;;17.30;99.90;;;;;;5041232;28;20243;-91
2021/05/13 03:16:02;;;;;;;3.53;0.60;;;17.20;99.90;;;;;;5044455;28;20209;-90
2021/05/13 03:18:34;;;;;;;4.93;0.73;;;17.20;99.90;;;;;;5044711;28;20247;-90
2021/05/13 03:21:10;;;;;;;2.13;0.73;;;17.10;99.90;;;;;;5029086;28;20201;-91
2021/05/13 03:23:46;;;;;;;1.30;0.70;;;17.00;99.90;;;;;;5048475;28;20306;-91
2021/05/13 03:26:16;;;;;;;1.73;0.70;;;16.90;99.90;;;;;;5056539;28;20196;-90
2021/05/13 03:28:47;;;;;;;1.50;0.60;;;16.80;99.90;;;;;;5064838;28;20220;-89
2021/05/13 03:31:19;;;;;;;0.80;0.50;;;16.70;99.90;;;;;;5059798;28;20232;-91
2021/05/13 03:33:50;;;;;;;1.43;0.60;;;16.70;99.90;;;;;;5067805;28;20228;-91
2021/05/13 03:36:22;;;;;;;0.93;0.60;;;16.70;99.90;;;;;;5067647;28;20216;-90
2021/05/13 03:38:54;;;;;;;2.27;0.90;;;16.60;99.90;;;;;;5067032;28;20208;-90
2021/05/13 03:41:24;;;;;;;2.43;0.77;;;16.60;99.90;;;;;;5066722;28;20667;-92
2021/05/13 03:43:55;;;;;;;3.13;1.27;;;16.60;99.90;;;;;;5066641;28;20213;-92
2021/05/13 03:46:26;;;;;;;3.83;0.90;;;16.50;99.90;;;;;;5067545;28;20204;-92
2021/05/13 03:48:56;;;;;;;1.80;1.00;;;16.50;99.90;;;;;;5066881;28;20211;-92
2021/05/13 03:51:27;;;;;;;3.17;0.73;;;16.40;99.90;;;;;;5070031;28;20200;-92
2021/05/13 03:53:59;;;;;;;1.80;0.90;;;16.40;99.90;;;;;;5070487;28;20240;-91
2021/05/13 03:56:30;;;;;;;3.63;1.20;;;16.30;99.90;;;;;;5072472;28;20209;-92
2021/05/13 03:59:06;;;;;;;1.97;0.80;;;16.20;99.90;;;;;;5073062;28;20220;-92
2021/05/13 04:04:20;;;;;;;4.43;1.37;;;16.30;99.90;;;;;;5062375;28;20264;-91
2021/05/13 04:06:52;;;;;;;3.03;0.80;;;16.30;99.90;;;;;;5061597;28;20660;-91
2021/05/13 04:09:30;;;;;;;1.10;0.80;;;16.20;99.90;;;;;;5057966;28;20214;-90
2021/05/13 04:12:01;;;;;;;2.97;1.27;;;16.30;99.90;;;;;;5055457;28;20243;-91
2021/05/13 04:14:32;;;;;;;2.50;0.90;;;16.30;99.90;;;;;;5056693;28;20286;-91
2021/05/13 04:17:07;;;;;;;1.90;1.00;;;16.20;99.90;;;;;;5057369;28;20208;-91
2021/05/13 04:19:37;;;;;;;1.20;0.90;;;16.20;99.90;;;;;;5056881;28;20211;-91
2021/05/13 04:22:08;;;;;;;2.53;0.80;;;16.20;99.90;;;;;;5058611;28;20238;-90
2021/05/13 04:24:41;;;;;;;2.53;1.10;;;16.20;99.90;;;;;;5057040;28;20594;-90
2021/05/13 04:27:13;;;;;;;4.00;1.63;;;16.30;99.90;;;;;;5039143;28;20235;-90
2021/05/13 04:29:44;;;;;;;2.00;1.00;;;16.20;99.90;;;;;;5056893;28;20205;-90
2021/05/13 04:32:15;;;;;;;2.10;0.87;;;16.10;99.90;;;;;;5044378;28;20219;-90
2021/05/13 04:34:46;;;;;;;1.73;1.10;;;16.10;99.90;;;;;;5036149;28;20319;-90
2021/05/13 04:37:17;;;;;;;1.37;0.90;;;16.10;99.90;;;;;;5036737;28;20245;-91
2021/05/13 04:39:49;;;;;;;2.90;1.10;;;16.00;99.90;;;;;;5036518;28;20209;-91
2021/05/13 04:42:20;;;;;;;2.00;0.90;;;16.00;99.90;;;;;;5035736;28;20197;-91
2021/05/13 04:44:52;;;;;;;1.87;0.90;;;16.00;99.90;;;;;;5036200;28;20275;-90
2021/05/13 04:47:26;;;;;;;2.63;1.07;;;16.00;99.90;;;;;;5036388;28;20229;-90
2021/05/13 04:49:57;;;;;;;1.40;1.00;;;16.00;99.90;;;;;;5036683;28;20266;-91
2021/05/13 04:52:28;;;;;;;1.13;0.93;;;16.00;99.90;;;;;;5037870;28;20235;-91
2021/05/13 04:55:00;;;;;;;1.90;1.00;;;16.00;99.90;;;;;;5035819;28;20232;-91
2021/05/13 04:57:30;;;;;;;2.60;1.00;;;15.90;99.90;;;;;;5035951;28;20561;-91
2021/05/13 05:00:03;;;;;;;2.57;0.90;;;15.90;99.90;;;;;;5036047;28;20292;-91
2021/05/13 05:02:33;;;;;;;1.63;1.00;;;15.90;99.90;;;;;;5036396;28;20293;-90
2021/05/13 05:05:03;;;;;;;2.07;0.80;;;15.80;99.90;;;;;;5035707;28;20212;-90
2021/05/13 05:07:34;;;;;;;2.93;1.30;;;15.80;99.90;;;;;;5036035;28;20205;-90
2021/05/13 05:10:08;;;;;;;2.03;0.90;;;15.70;99.90;;;;;;5017373;28;20278;-90
2021/05/13 05:12:39;;;;;;;1.03;0.80;;;15.70;99.90;;;;;;5018216;28;20723;-91
2021/05/13 05:15:11;;;;;;;3.57;1.03;;;15.60;99.90;;;;;;5018812;28;20229;-90
2021/05/13 05:17:42;;;;;;;3.20;0.90;;;15.60;99.90;;;;;;5035468;28;20204;-90
2021/05/13 05:20:15;;;;;;;2.43;0.90;;;15.60;99.90;;;;;;5035020;28;20228;-91
2021/05/13 05:22:46;;;;;;;1.53;0.90;;;15.50;99.90;;;;;;5018401;28;20232;-90
2021/05/13 05:25:19;;;;;;;0.93;0.80;;;15.40;99.90;;;;;;5036255;28;20263;-90
2021/05/13 05:27:50;;;;;;;0.87;0.70;;;15.50;99.90;;;;;;5036291;28;20613;-90
2021/05/13 05:30:21;;;;;;;1.10;0.90;;;15.50;99.90;;;;;;5036358;28;20208;-91
2021/05/13 05:32:53;;;;;;;1.80;1.10;;;15.50;99.90;;;;;;5052945;28;20212;-91
2021/05/13 05:35:26;;;;;;;3.00;0.90;;;15.40;99.90;;;;;;5052661;28;20244;-92
2021/05/13 05:37:57;;;;;;;1.40;0.80;;;15.40;99.90;;;;;;5047935;28;20262;-91
2021/05/13 05:40:34;;;;;;;2.20;0.80;;;15.40;99.90;;;;;;5036321;28;20205;-91
2021/05/13 05:43:06;;;;;;;1.27;0.80;;;15.40;99.90;;;;;;5035503;28;20213;-91
2021/05/13 05:45:39;;;;;;;2.87;0.87;;;15.50;99.90;;;;;;5035474;28;20204;-91
2021/05/13 05:48:11;;;;;;;2.40;1.00;;;15.40;99.90;;;;;;5018831;28;20282;-91
2021/05/13 05:50:43;;;;;;;0.87;0.80;;;15.40;99.90;;;;;;5034558;28;20288;-91
2021/05/13 05:53:14;;;;;;;2.33;0.80;;;15.40;99.90;;;;;;5035970;28;20240;-90
2021/05/13 05:55:46;;;;;;;1.20;0.80;;;15.30;99.90;;;;;;5035795;28;20201;-90
2021/05/13 05:58:17;;;;;;;2.10;0.73;;;15.30;99.90;;;;;;5036292;28;20251;-91
2021/05/13 06:00:48;;;;;;;2.40;0.80;;;15.30;99.90;;;;;;5036006;28;20233;-90
2021/05/13 06:03:22;;;;;;;1.30;0.80;;;15.30;99.90;;;;;;5018481;28;20246;-91
2021/05/13 06:05:52;;;;;;;1.90;1.00;;;15.30;99.90;;;;;;5037246;28;20215;-90
2021/05/13 06:08:25;;;;;;;0.53;0.53;;;15.10;99.90;;;;;;5018509;28;20273;-90
2021/05/13 06:11:00;;;;;;;1.67;0.83;;;15.10;99.90;;;;;;5034803;28;20221;-91
2021/05/13 06:13:31;;;;;;;1.57;0.70;;;15.10;99.90;;;;;;5036178;28;20232;-92
2021/05/13 06:16:02;;;;;;;1.20;0.80;;;15.00;99.90;;;;;;5035701;28;20347;-91
2021/05/13 06:18:33;;;;;;;1.90;1.10;;;14.90;99.90;;;;;;5037049;28;20213;-90
2021/05/13 06:21:04;;;;;;;1.53;0.93;;;14.90;99.90;;;;;;5034659;28;20566;-91
2021/05/13 06:23:35;;;;;;;2.50;0.90;;;14.80;99.90;;;;;;5040279;28;20213;-90
2021/05/13 06:26:07;;;;;;;2.00;1.00;;;14.80;99.90;;;;;;5039587;28;20205;-89
2021/05/13 06:28:38;;;;;;;2.23;0.83;;;14.80;99.90;;;;;;5021130;28;20259;-89
2021/05/13 06:31:08;;;;;;;2.47;1.00;;;14.80;99.90;;;;;;5033965;28;20573;-90
2021/05/13 06:33:39;;;;;;;1.80;1.03;;;14.80;99.90;;;;;;5034488;28;20201;-90
2021/05/13 06:36:10;;;;;;;2.00;0.90;;;14.80;99.90;;;;;;5040314;28;20228;-90
2021/05/13 06:38:43;;;;;;;1.97;0.80;;;14.70;99.90;;;;;;5038355;28;20216;-90
2021/05/13 06:41:16;;;;;;;3.47;0.90;;;14.70;99.90;;;;;;5039122;28;20201;-90
2021/05/13 06:43:47;;;;;;;1.10;0.70;;;14.60;99.90;;;;;;5038113;28;20208;-90
2021/05/13 06:46:20;;;;;;;2.50;0.90;;;14.60;99.90;;;;;;5021384;28;20271;-91
2021/05/13 06:48:52;;;;;;;1.77;1.03;;;14.50;99.90;;;;;;5037685;28;20604;-90
2021/05/13 06:51:22;;;;;;;1.10;0.93;;;14.50;99.90;;;;;;5038708;28;20221;-90
2021/05/13 06:53:53;;;;;;;1.80;1.07;;;14.50;99.90;;;;;;5037851;28;20629;-91
2021/05/13 06:56:25;;;;;;;2.33;0.97;;;14.60;99.90;;;;;;5037846;28;20670;-91
2021/05/13 06:58:58;;;;;;;2.80;1.03;;;14.60;99.90;;;;;;5039985;28;20670;-91
2021/05/13 07:01:28;;;;;;;1.10;0.90;;;14.50;99.90;;;;;;5037464;28;20487;-91
2021/05/13 07:04:00;;;;;;;2.20;0.97;;;14.50;99.90;;;;;;5039682;28;20213;-90
2021/05/13 07:06:31;;;;;;;1.30;0.90;;;14.40;99.90;;;;;;5039956;28;20271;-91
2021/05/13 07:09:02;;;;;;;0.97;0.87;;;14.40;99.90;;;;;;5039668;28;20235;-90
2021/05/13 07:11:33;;;;;;;1.50;0.93;;;14.30;99.90;;;;;;5038931;28;20223;-90
2021/05/13 07:14:04;;;;;;;3.13;0.93;;;14.20;99.90;;;;;;5043440;28;20271;-91
2021/05/13 07:16:35;;;;;;;0.77;0.77;;;14.10;99.90;;;;;;5063728;28;20211;-91
2021/05/13 07:19:07;;;;;;;1.87;0.80;;;14.10;99.90;;;;;;5072569;28;20204;-91
2021/05/13 07:21:38;;;;;;;1.47;0.80;;;14.10;99.90;;;;;;5057300;28;20193;-91
2021/05/13 07:24:09;;;;;;;2.27;1.00;;;14.00;99.90;;;;;;5057323;28;20209;-91
2021/05/13 07:26:42;;;;;;;1.50;0.90;;;13.90;99.90;;;;;;5051334;28;20212;-91
2021/05/13 07:29:14;;;;;;;1.33;0.90;;;13.80;99.90;;;;;;5050837;28;20216;-91
2021/05/13 07:31:44;;;;;;;1.70;1.10;;;13.70;99.90;;;;;;5048154;28;20213;-92
2021/05/13 07:34:17;;;;;;;1.80;1.00;;;13.70;99.90;;;;;;5037920;28;20244;-92
2021/05/13 07:36:48;;;;;;;1.17;1.07;;;13.70;99.90;;;;;;5038302;28;20205;-90
2021/05/13 07:39:19;;;;;;;1.90;0.90;;;13.60;99.90;;;;;;5038215;28;20232;-90
2021/05/13 07:41:52;;;;;;;1.57;0.90;;;13.50;99.90;;;;;;5037108;28;20255;-91
2021/05/13 07:44:23;;;;;;;2.37;1.07;;;13.50;99.90;;;;;;5039475;28;20209;-90
2021/05/13 07:46:55;;;;;;;2.40;1.00;;;13.50;99.90;;;;;;5037114;28;20224;-90
2021/05/13 07:49:28;;;;;;;1.50;1.10;;;13.40;99.90;;;;;;5059920;28;20201;-91
2021/05/13 07:51:58;;;;;;;1.77;1.00;;;13.30;99.90;;;;;;5057948;28;20663;-90
2021/05/13 07:54:28;;;;;;;5.20;1.27;;;13.30;99.90;;;;;;5068911;28;20262;-90
2021/05/13 07:56:59;;;;;;;1.20;1.10;;;13.30;99.90;;;;;;5055281;28;20216;-91
2021/05/13 07:59:31;;;;;;;1.43;1.03;;;13.20;99.90;;;;;;5052500;28;20255;-91
2021/05/13 08:02:02;;;;;;;2.03;1.13;;;13.10;99.90;;;;;;5044934;28;20205;-91
2021/05/13 08:04:32;;;;;;;3.30;1.00;;;13.10;99.90;;;;;;5040132;28;20209;-90
2021/05/13 08:07:03;;;;;;;2.70;1.00;;;13.10;99.90;;;;;;5038077;28;20291;-90
2021/05/13 08:09:33;;;;;;;2.23;1.27;;;13.00;99.90;;;;;;5043383;28;20267;-90
2021/05/13 08:12:06;;;;;;;1.27;1.00;;;12.90;99.90;;;;;;5045398;28;20205;-90
2021/05/13 08:14:37;;;;;;;1.73;1.10;;;12.90;99.90;;;;;;5040841;28;20224;-90
2021/05/13 08:17:08;;;;;;;3.50;1.40;;;12.90;99.90;;;;;;5037202;28;20196;-90
2021/05/13 08:19:39;;;;;;;1.10;0.87;;;12.80;99.90;;;;;;5003759;28;20295;-90
2021/05/13 08:22:14;;;;;;;2.47;1.30;;;12.70;99.90;;;;;;5035856;28;20204;-90
2021/05/13 08:24:45;;;;;;;1.43;1.30;;;12.70;99.90;;;;;;5035963;28;20299;-90
2021/05/13 08:27:18;;;;;;;3.30;1.40;;;12.60;99.90;;;;;;5036415;28;20205;-91
2021/05/13 08:29:49;;;;;;;2.33;1.50;;;12.50;99.90;;;;;;5019380;28;20611;-90
2021/05/13 08:32:20;;;;;;;2.53;1.23;;;12.50;99.90;;;;;;5018021;28;20204;-90
2021/05/13 08:34:51;;;;;;;2.90;1.30;;;12.40;99.90;;;;;;5035598;28;20264;-91
2021/05/13 08:37:22;;;;;;;4.10;1.30;;;12.40;99.90;;;;;;5035982;28;20208;-91
2021/05/13 08:39:53;;;;;;;1.40;1.10;;;12.30;99.90;;;;;;5035884;28;20239;-91
2021/05/13 08:42:25;;;;;;;2.73;1.53;;;12.30;99.90;;;;;;5034721;28;20716;-91
2021/05/13 08:44:57;;;;;;;2.87;1.40;;;12.30;99.90;;;;;;5035771;28;20271;-91
2021/05/13 08:47:28;;;;;;;2.43;1.37;;;12.30;99.90;;;;;;5035441;28;20232;-90
2021/05/13 08:50:02;;;;;;;2.53;1.13;;;12.40;99.90;;;;;;5036782;28;20235;-91
2021/05/13 08:52:33;;;;;;;2.60;1.30;;;12.40;99.90;;;;;;5036552;28;20687;-91
2021/05/13 08:55:06;;;;;;;2.33;1.57;;;12.40;99.90;;;;;;5035981;28;20304;-91
2021/05/13 08:57:39;;;;;;;1.83;1.40;;;12.60;99.90;;;;;;5034893;28;20212;-90
2021/05/13 09:00:11;;;;;;;2.97;1.80;;;12.50;99.90;;;;;;5036717;28;20688;-91
2021/05/13 09:02:51;;;;;;;3.60;1.93;;;12.60;99.90;;;;;;5019172;28;20244;-90
2021/05/13 09:05:24;;;;;;;3.30;1.73;;;12.50;99.90;;;;;;5035410;28;20258;-90
2021/05/13 09:07:56;;;;;;;3.43;2.10;;;12.60;99.90;;;;;;5036135;28;20197;-90
2021/05/13 09:10:26;;;;;;;4.43;2.33;;;12.70;99.90;;;;;;5035250;28;20208;-90
2021/05/13 09:12:59;;;;;;;3.93;1.70;;;12.70;99.90;;;;;;5018262;28;20201;-90
2021/05/13 09:15:32;;;;;;;2.63;1.40;;;12.60;99.90;;;;;;5034865;28;20267;-91
2021/05/13 09:18:05;;;;;;;2.97;1.93;;;12.60;99.90;;;;;;5017148;28;20282;-90
2021/05/13 09:20:39;;;;;;;2.77;1.83;;;12.60;99.90;;;;;;5017502;28;20263;-90
2021/05/13 09:23:14;;;;;;;2.17;1.50;;;12.60;99.90;;;;;;5034782;28;20219;-90
2021/05/13 09:25:46;;;;;;;3.57;1.77;;;12.50;99.90;;;;;;5034927;28;20239;-90
2021/05/13 09:28:27;;;;;;;3.27;1.90;;;12.40;99.90;;;;;;5035247;28;20213;-90
2021/05/13 09:30:58;;;;;;;2.17;1.53;;;12.40;99.90;;;;;;5034328;28;20243;-89
2021/05/13 09:33:42;;;;;;;2.80;1.50;;;12.40;99.90;;;;;;5035742;28;20288;-91
2021/05/13 09:36:21;;;;;;;2.40;1.60;;;12.40;99.90;;;;;;5036071;28;20287;-91
2021/05/13 09:38:52;;;;;;;2.73;1.63;;;12.30;99.90;;;;;;5035037;28;20209;-91
2021/05/13 09:41:30;;;;;;;3.70;1.90;;;12.40;99.90;;;;;;5034241;28;20236;-91
2021/05/13 09:44:02;;;;;;;2.70;1.77;;;12.40;99.90;;;;;;5034820;28;20243;-91
2021/05/13 09:46:35;;;;;;;3.60;1.73;;;12.30;99.90;;;;;;5035558;28;20724;-91
2021/05/13 09:49:06;;;;;;;1.90;1.60;;;12.20;99.90;;;;;;5019075;28;20231;-91
2021/05/13 09:51:39;;;;;;;3.23;1.70;;;12.20;99.90;;;;;;5038893;28;20209;-92
2021/05/13 09:54:12;;;;;;;3.57;1.87;;;12.10;99.90;;;;;;5042197;28;20232;-90
2021/05/13 09:56:45;;;;;;;2.90;2.10;;;12.00;99.90;;;;;;5035896;28;20613;-91
2021/05/13 09:59:26;;;;;;;4.23;1.80;;;12.00;99.90;;;;;;5050582;28;20258;-90
2021/05/13 10:02:00;;;;;;;1.87;1.77;;;11.80;99.90;;;;;;5054758;28;20265;-90
2021/05/13 10:04:31;;;;;;;3.77;1.80;;;11.80;99.90;;;;;;5055028;28;20212;-89
2021/05/13 10:07:03;;;;;;;2.53;2.00;;;11.80;99.90;;;;;;5038372;28;20228;-90
2021/05/13 10:09:34;;;;;;;2.27;1.57;;;11.70;99.90;;;;;;5057136;28;20227;-90
2021/05/13 10:12:24;;;;;;;3.33;2.23;;;11.70;99.90;;;;;;5058925;28;20207;-90
2021/05/13 10:14:57;;;;;;;3.07;1.90;;;11.60;99.90;;;;;;5075515;28;20200;-90
2021/05/13 10:17:29;;;;;;;2.27;1.60;;;11.50;99.90;;;;;;5041625;28;20253;-91
2021/05/13 10:20:01;;;;;;;5.40;1.97;;;11.50;99.90;;;;;;5036065;28;20273;-93
2021/05/13 10:22:33;;;;;;;3.27;2.00;;;11.40;99.90;;;;;;5001675;28;20215;-91
2021/05/13 10:25:25;;;;;;;4.13;1.90;;;11.40;99.90;;;;;;5019292;28;20622;-90
2021/05/13 10:27:58;;;;;;;2.83;1.97;;;11.40;99.90;;;;;;5015883;28;20225;-90
2021/05/13 10:30:33;;;;;;;2.83;1.90;;;11.30;99.90;;;;;;5016998;28;20303;-90
2021/05/13 10:33:14;;;;;;;2.03;1.80;;;11.30;99.90;;;;;;5032527;28;20236;-91
2021/05/13 10:36:05;;;;;;;2.37;1.70;;;11.30;99.90;;;;;;5038054;28;20335;-91
2021/05/13 10:38:41;;;;;;;2.77;2.07;;;11.20;99.90;;;;;;5037736;28;20216;-90
2021/05/13 10:41:36;;;;;;;2.83;1.70;;;11.10;99.90;;;;;;5020729;28;20238;-90
2021/05/13 10:44:35;;;;;;;5.03;2.10;;;11.00;99.90;;;;;;5040469;28;20212;-91
2021/05/13 10:47:09;;;;;;;6.10;2.03;;;11.00;99.90;;;;;;5037723;28;20209;-91
2021/05/13 10:49:47;;;;;;;4.83;1.87;;;10.90;99.90;;;;;;5022741;28;20295;-90
2021/05/13 10:52:41;;;;;;;5.73;2.17;;;10.90;99.90;;;;;;5038658;28;20263;-90
2021/05/13 10:55:12;;;;;;;3.07;1.87;;;10.80;99.90;;;;;;5037951;28;20229;-91
2021/05/13 10:57:51;;;;;;;3.60;2.30;;;10.80;99.90;;;;;;5038736;28;20197;-91
2021/05/13 11:00:29;;;;;;;2.40;1.80;;;10.70;99.90;;;;;;5037522;28;20234;-90
2021/05/13 11:03:26;;;;;;;3.00;1.90;;;10.70;99.90;;;;;;5022880;28;20208;-90
2021/05/13 11:05:56;;;;;;;2.43;2.03;;;10.70;99.90;;;;;;5037499;28;20241;-90
2021/05/13 11:08:46;;;;;;;3.73;1.93;;;10.70;99.90;;;;;;5038077;28;20218;-90
2021/05/13 11:11:17;;;;;;;2.37;1.90;;;10.60;99.90;;;;;;5045576;28;20267;-91
2021/05/13 11:13:51;;;;;;;2.77;1.87;;;10.60;99.90;;;;;;5057640;28;20216;-89
2021/05/13 11:16:51;;;;;;;3.73;2.50;;;10.50;99.90;;;;;;5056598;28;20255;-91
2021/05/13 11:19:30;;;;;;;4.00;2.20;;;10.50;99.90;;;;;;5057539;28;20220;-90
2021/05/13 11:22:10;;;;;;;4.27;2.40;;;10.50;99.90;;;;;;5055649;28;20224;-90
2021/05/13 11:24:43;;;;;;;5.50;2.33;;;10.50;99.90;;;;;;5057409;28;20223;-89
2021/05/13 11:27:13;;;;;;;3.10;2.80;;;10.40;99.90;;;;;;5057193;28;20270;-89
2021/05/13 11:29:52;;;;;;;3.27;2.40;;;10.40;99.90;;;;;;5056920;28;20212;-89
2021/05/13 11:32:24;;;;;;;5.10;2.60;;;10.40;99.90;;;;;;5056538;28;20298;-90
2021/05/13 11:34:57;;;;;;;6.23;2.80;;;10.30;99.90;;;;;;5039944;28;20200;-89
2021/05/13 11:37:40;;;;;;;6.07;2.40;;;10.40;99.90;;;;;;5057386;28;20596;-91
2021/05/13 11:40:23;;;;;;;3.80;2.40;;;10.30;99.90;;;;;;5056778;28;20209;-91
2021/05/13 11:43:18;;;;;;;4.40;2.83;;;10.30;99.90;;;;;;5056791;28;20216;-90
2021/05/13 11:45:50;;;;;;;3.40;2.63;;;10.30;99.90;;;;;;5057057;28;20212;-90
2021/05/13 11:48:35;;;;;;;4.63;3.23;;;10.30;99.90;;;;;;5057130;28;20204;-90
2021/05/13 11:51:09;;;;;;;5.43;3.77;;;10.40;99.90;;;;;;5056418;28;20217;-90
2021/05/13 11:53:42;;;;;;;7.73;5.10;;;10.50;99.90;;;;;;5057111;28;20261;-90
2021/05/13 11:56:14;;;;;;;14.10;6.10;;;10.50;99.90;;;;;;5039478;28;20228;-92
2021/05/13 11:58:47;;;;;;;9.47;6.83;;;10.60;99.90;;;;;;5056863;28;20289;-90
2021/05/13 12:01:27;;;;;;;9.93;6.57;;;10.60;99.90;;;;;;5056218;28;20296;-91
2021/05/13 12:04:04;;;;;;;8.53;7.37;;;10.60;99.90;;;;;;5056277;28;20267;-90
2021/05/13 12:07:01;;;;;;;10.57;7.23;;;10.50;99.90;;;;;;5056759;28;20204;-90
2021/05/13 12:09:33;;;;;;;9.50;7.83;;;10.60;99.90;;;;;;5039756;28;20237;-90
2021/05/13 12:12:05;;;;;;;10.40;7.87;;;10.60;99.90;;;;;;5055855;28;20315;-90
2021/05/13 12:14:36;;;;;;;8.53;6.60;;;10.60;99.90;;;;;;5038755;28;20243;-89
2021/05/13 12:17:10;;;;;;;14.40;7.27;;;10.60;99.90;;;;;;5056369;28;20239;-90
2021/05/13 12:19:43;;;;;;;9.53;7.80;;;10.60;99.90;;;;;;5056581;28;20236;-90
2021/05/13 12:22:18;;;;;;;10.10;7.50;;;10.60;99.90;;;;;;5055439;28;20318;-90
2021/05/13 12:24:51;;;;;;;11.13;8.20;;;10.60;99.90;;;;;;5056508;28;20204;-90
2021/05/13 12:27:22;;;;;;;10.77;7.97;;;10.60;99.90;;;;;;5046332;28;20271;-90
2021/05/13 12:29:53;;;;;;;10.57;8.67;;;10.60;99.90;;;;;;5022205;28;20301;-90
2021/05/13 12:32:31;;;;;;;11.20;8.30;;;10.60;99.90;;;;;;5019030;28;20205;-90
2021/05/13 12:35:02;;;;;;;10.40;8.03;;;10.60;99.90;;;;;;5051867;28;20201;-90
2021/05/13 12:37:34;;;;;;;11.30;9.00;;;10.70;99.90;;;;;;5051167;28;20233;-90
2021/05/13 12:40:12;;;;;;;9.67;8.03;;;10.70;99.90;;;;;;5048621;28;20212;-91
2021/05/13 12:42:43;;;;;;;13.67;8.87;;;10.70;99.90;;;;;;5041224;28;20654;-91
2021/05/13 12:45:18;;;;;;;12.90;9.07;;;10.70;99.90;;;;;;5051108;28;20223;-91
2021/05/13 12:48:01;;;;;;;12.03;9.10;;;10.70;99.90;;;;;;5055893;28;20217;-90
2021/05/13 12:50:32;;;;;;;12.37;8.50;;;10.70;99.90;;;;;;5055663;28;20251;-91
2021/05/13 12:53:15;;;;;;;12.47;8.73;;;10.60;99.90;;;;;;5053896;28;20208;-91
2021/05/13 12:55:50;;;;;;;11.67;9.33;;;10.70;99.90;;;;;;5054565;28;20185;-92
2021/05/13 12:58:22;;;;;;;13.03;9.33;;;10.70;99.90;;;;;;5050868;28;20574;-90
2021/05/13 13:00:56;;;;;;;13.37;9.23;;;10.70;99.90;;;;;;5041451;28;20244;-90
2021/05/13 13:03:33;;;;;;;10.63;9.27;;;10.80;99.90;;;;;;5019546;28;20586;-90
2021/05/13 13:06:09;;;;;;;13.90;9.50;;;10.90;99.90;;;;;;5036690;28;20263;-90
2021/05/13 13:08:45;;;;;;;13.23;9.77;;;10.90;99.90;;;;;;5035678;28;20219;-89
2021/05/13 13:11:16;;;;;;;10.47;9.33;;;10.90;99.90;;;;;;5035211;28;20216;-90
2021/05/13 13:13:47;;;;;;;10.77;8.83;;;10.90;99.90;;;;;;5035890;28;20337;-89
2021/05/13 13:16:24;;;;;;;10.87;8.83;;;11.00;99.90;;;;;;5035140;28;20232;-90
2021/05/13 13:19:07;;;;;;;9.30;8.03;;;11.00;99.90;;;;;;5035775;28;20223;-91